createdAt,value
2018-04-19T00:01:03.995Z,17.54
2018-04-19T00:06:06.029Z,17.42
2018-04-19T00:11:07.339Z,17.37
2018-04-19T00:16:08.681Z,17.32
2018-04-19T00:21:10.711Z,16.81
2018-04-19T00:26:12.030Z,16.89
2018-04-19T00:31:13.350Z,16.95
2018-04-19T00:36:15.394Z,16.94
2018-04-19T00:41:16.709Z,16.81
2018-04-19T00:46:18.022Z,16.75
2018-04-19T00:51:19.324Z,16.15
2018-04-19T00:56:21.371Z,16.06
2018-04-19T01:01:22.668Z,16.10
2018-04-19T01:06:23.975Z,16.03
2018-04-19T01:11:25.285Z,16.00
2018-04-19T01:16:26.582Z,15.90
2018-04-19T01:21:28.662Z,16.13
2018-04-19T01:26:29.986Z,16.24
2018-04-19T01:31:32.071Z,16.30
2018-04-19T01:36:33.373Z,16.25
2018-04-19T01:41:35.417Z,16.33
2018-04-19T01:46:36.762Z,16.26
2018-04-19T01:51:38.058Z,16.24
2018-04-19T01:56:39.374Z,16.02
2018-04-19T02:01:40.678Z,16.05
2018-04-19T02:06:41.981Z,15.95
2018-04-19T02:11:43.269Z,15.89
2018-04-19T02:16:44.603Z,15.80
2018-04-19T02:21:46.638Z,15.71
2018-04-19T02:26:47.944Z,15.30
2018-04-19T02:31:49.246Z,15.36
2018-04-19T02:36:50.553Z,15.54
2018-04-19T02:41:51.854Z,15.44
2018-04-19T02:46:53.930Z,15.41
2018-04-19T02:51:55.275Z,14.91
2018-04-19T02:56:57.359Z,15.15
2018-04-19T03:01:58.670Z,15.12
2018-04-19T03:07:00.782Z,15.10
2018-04-19T03:12:02.890Z,15.20
2018-04-19T03:17:04.939Z,14.98
2018-04-19T03:22:06.263Z,15.09
2018-04-19T03:27:07.554Z,15.10
2018-04-19T03:32:08.882Z,15.02
2018-04-19T03:37:10.208Z,14.99
2018-04-19T03:42:11.514Z,14.97
2018-04-19T03:47:12.807Z,14.87
2018-04-19T03:52:14.165Z,14.58
2018-04-19T03:57:15.470Z,14.37
2018-04-19T04:02:16.771Z,14.65
2018-04-19T04:07:18.070Z,14.76
2018-04-19T04:12:20.131Z,14.45
2018-04-19T04:17:39.971Z,14.45
2018-04-19T04:22:59.835Z,14.58
2018-04-19T04:28:02.740Z,14.49
2018-04-19T04:33:04.065Z,14.51
2018-04-19T04:38:05.366Z,14.12
2018-04-19T04:43:06.686Z,14.24
2018-04-19T04:48:08.011Z,14.69
2018-04-19T04:53:10.071Z,14.85
2018-04-19T04:58:11.395Z,14.92
2018-04-19T05:03:12.695Z,15.05
2018-04-19T05:08:14.786Z,15.16
2018-04-19T05:13:16.109Z,15.07
2018-04-19T05:18:18.183Z,15.14
2018-04-19T05:23:19.506Z,15.33
2018-04-19T05:28:26.922Z,15.52
2018-04-19T05:33:28.270Z,15.92
2018-04-19T05:38:29.568Z,16.39
2018-04-19T05:43:30.907Z,16.85
2018-04-19T05:48:32.252Z,17.28
2018-04-19T05:53:33.612Z,17.62
2018-04-19T05:58:34.944Z,17.92
2018-04-19T06:03:36.267Z,18.10
2018-04-19T06:08:37.644Z,18.14
2018-04-19T06:13:38.925Z,18.27
2018-04-19T06:18:40.981Z,18.55
2018-04-19T06:23:42.329Z,18.68
2018-04-19T06:28:44.410Z,18.95
2018-04-19T06:33:45.733Z,19.05
2018-04-19T06:38:54.655Z,19.29
2018-04-19T06:43:55.986Z,19.30
2018-04-19T06:48:58.030Z,19.70
2018-04-19T06:53:59.350Z,20.03
2018-04-19T06:59:00.650Z,20.28
2018-04-19T07:04:01.983Z,20.53
2018-04-19T07:09:06.246Z,20.72
2018-04-19T07:14:07.558Z,20.96
2018-04-19T07:19:08.870Z,21.06
2018-04-19T07:24:10.208Z,21.30
2018-04-19T07:29:11.502Z,21.62
2018-04-19T07:34:12.839Z,21.67
2018-04-19T07:39:14.200Z,22.10
2018-04-19T07:44:15.516Z,22.46
2018-04-19T07:49:16.834Z,22.71
2018-04-19T07:54:18.893Z,23.02
2018-04-19T07:59:20.210Z,23.10
2018-04-19T08:04:21.536Z,23.24
2018-04-19T08:09:22.847Z,23.45
2018-04-19T08:14:24.174Z,23.62
2018-04-19T08:19:25.486Z,23.98
2018-04-19T08:24:27.513Z,24.24
2018-04-19T08:29:28.863Z,24.47
2018-04-19T08:34:30.182Z,24.68
2018-04-19T08:39:31.514Z,24.92
2018-04-19T08:44:32.890Z,25.02
2018-04-19T08:49:34.174Z,25.27
2018-04-19T08:54:35.498Z,25.36
2018-04-19T08:59:36.801Z,25.44
2018-04-19T09:04:38.112Z,25.48
2018-04-19T09:09:39.426Z,25.50
2018-04-19T09:14:40.729Z,25.72
2018-04-19T09:19:42.046Z,25.87
2018-04-19T09:24:43.367Z,26.00
2018-04-19T09:29:44.697Z,26.07
2018-04-19T09:34:46.027Z,26.23
2018-04-19T09:39:48.087Z,26.48
2018-04-19T09:44:49.410Z,26.71
2018-04-19T09:49:50.731Z,26.77
2018-04-19T09:54:52.039Z,26.93
2018-04-19T09:59:53.333Z,27.04
2018-04-19T10:04:54.694Z,27.29
2018-04-19T10:09:55.998Z,27.42
2018-04-19T10:14:57.303Z,27.63
2018-04-19T10:19:58.616Z,27.59
2018-04-19T10:24:59.957Z,27.79
2018-04-19T10:30:01.277Z,27.88
2018-04-19T10:35:02.639Z,27.99
2018-04-19T10:40:03.987Z,27.98
2018-04-19T10:45:05.333Z,27.90
2018-04-19T10:50:06.642Z,28.02
2018-04-19T10:55:07.955Z,27.77
2018-04-19T11:00:09.282Z,28.05
2018-04-19T11:05:10.620Z,27.95
2018-04-19T11:10:11.993Z,28.05
2018-04-19T11:15:13.323Z,28.33
2018-04-19T11:20:14.675Z,28.37
2018-04-19T11:25:15.999Z,28.44
2018-04-19T11:30:17.351Z,28.43
2018-04-19T11:35:18.670Z,28.55
2018-04-19T11:40:20.001Z,28.57
2018-04-19T11:45:21.301Z,28.82
2018-04-19T11:50:22.641Z,28.82
2018-04-19T11:55:23.982Z,28.87
2018-04-19T12:00:25.319Z,29.10
2018-04-19T12:05:26.842Z,28.93
2018-04-19T12:10:28.160Z,28.92
2018-04-19T12:15:29.519Z,29.14
2018-04-19T12:20:31.605Z,29.41
2018-04-19T12:25:33.092Z,29.08
2018-04-19T12:30:34.419Z,28.91
2018-04-19T12:35:35.751Z,28.96
2018-04-19T12:40:37.066Z,29.07
2018-04-19T12:45:38.403Z,29.27
2018-04-19T12:50:39.712Z,29.06
2018-04-19T12:55:41.011Z,29.19
2018-04-19T13:00:42.356Z,29.28
2018-04-19T13:05:43.658Z,29.33
2018-04-19T13:10:44.987Z,29.26
2018-04-19T13:15:46.318Z,29.12
2018-04-19T13:20:47.625Z,29.21
2018-04-19T13:25:48.969Z,29.44
2018-04-19T13:30:51.019Z,29.28
2018-04-19T13:35:52.333Z,29.31
2018-04-19T13:40:53.762Z,29.15
2018-04-19T13:45:55.844Z,29.07
2018-04-19T13:50:57.166Z,29.17
2018-04-19T13:55:59.224Z,29.22
2018-04-19T14:01:00.598Z,29.52
2018-04-19T14:06:01.946Z,29.46
2018-04-19T14:11:03.309Z,29.51
2018-04-19T14:16:04.637Z,29.86
2018-04-19T14:21:06.782Z,30.08
2018-04-19T14:26:08.110Z,30.13
2018-04-19T14:31:09.551Z,29.88
2018-04-19T14:36:10.879Z,29.89
2018-04-19T14:41:12.187Z,29.79
2018-04-19T14:46:13.501Z,30.03
2018-04-19T14:51:15.593Z,30.09
2018-04-19T14:56:16.910Z,30.10
2018-04-19T15:01:18.232Z,30.33
2018-04-19T15:06:19.556Z,30.25
2018-04-19T15:11:21.695Z,30.34
2018-04-19T15:16:23.227Z,30.28
2018-04-19T15:21:24.773Z,30.26
2018-04-19T15:26:26.374Z,30.07
2018-04-19T15:31:27.914Z,30.14
2018-04-19T15:36:29.259Z,30.06
2018-04-19T15:41:30.650Z,30.11
2018-04-19T15:46:31.962Z,29.94
2018-04-19T15:51:33.274Z,29.98
2018-04-19T15:56:34.608Z,30.10
2018-04-19T16:01:35.945Z,29.91
2018-04-19T16:06:37.286Z,29.87
2018-04-19T16:11:38.608Z,29.68
2018-04-19T16:16:39.943Z,29.55
2018-04-19T16:21:41.283Z,29.44
2018-04-19T16:26:42.627Z,29.35
2018-04-19T16:31:43.962Z,29.39
2018-04-19T16:36:45.291Z,29.50
2018-04-19T16:41:46.639Z,29.23
2018-04-19T16:46:47.959Z,28.99
2018-04-19T16:51:49.294Z,28.75
2018-04-19T16:56:51.351Z,28.53
2018-04-19T17:01:52.715Z,28.11
2018-04-19T17:06:54.047Z,27.79
2018-04-19T17:11:55.515Z,27.75
2018-04-19T17:16:56.878Z,27.57
2018-04-19T17:21:58.211Z,27.53
2018-04-19T17:26:59.517Z,27.33
2018-04-19T17:32:00.846Z,27.25
2018-04-19T17:37:02.198Z,26.96
2018-04-19T17:42:03.527Z,26.73
2018-04-19T17:47:04.896Z,26.46
2018-04-19T17:52:06.963Z,26.39
2018-04-19T17:57:08.304Z,26.28
2018-04-19T18:02:10.884Z,26.00
2018-04-19T18:07:12.195Z,25.87
2018-04-19T18:12:15.820Z,25.87
2018-04-19T18:17:17.944Z,25.58
2018-04-19T18:22:19.319Z,25.56
2018-04-19T18:27:21.572Z,25.26
2018-04-19T18:32:22.950Z,25.15
2018-04-19T18:37:25.037Z,24.91
2018-04-19T18:42:26.367Z,24.73
2018-04-19T18:47:28.350Z,24.66
2018-04-19T18:52:30.426Z,24.53
2018-04-19T18:57:31.755Z,24.31
2018-04-19T19:02:33.134Z,24.19
2018-04-19T19:07:35.646Z,24.10
2018-04-19T19:12:43.986Z,23.95
2018-04-19T19:18:03.758Z,23.84
2018-04-19T19:23:05.083Z,23.72
2018-04-19T19:28:06.423Z,23.64
2018-04-19T19:33:07.745Z,23.62
2018-04-19T19:38:09.054Z,23.51
2018-04-19T19:43:10.451Z,23.27
2018-04-19T19:48:12.559Z,23.32
2018-04-19T19:53:13.927Z,23.22
2018-04-19T19:58:15.282Z,23.10
2018-04-19T20:03:16.601Z,23.01
2018-04-19T20:08:17.925Z,22.91
2018-04-19T20:13:19.246Z,22.85
2018-04-19T20:18:20.557Z,22.81
2018-04-19T20:23:21.886Z,22.64
2018-04-19T20:28:23.203Z,22.62
2018-04-19T20:33:25.241Z,22.53
2018-04-19T20:38:26.555Z,22.47
2018-04-19T20:43:27.867Z,22.32
2018-04-19T20:48:29.162Z,22.24
2018-04-19T20:53:30.496Z,22.08
2018-04-19T20:58:31.797Z,21.97
2018-04-19T21:03:33.122Z,21.83
2018-04-19T21:08:34.430Z,21.72
2018-04-19T21:13:36.506Z,21.63
2018-04-19T21:18:37.826Z,21.52
2018-04-19T21:23:39.134Z,21.39
2018-04-19T21:28:40.445Z,21.46
2018-04-19T21:33:41.767Z,21.55
2018-04-19T21:38:43.063Z,21.62
2018-04-19T21:43:44.362Z,21.68
2018-04-19T21:48:46.407Z,21.64
2018-04-19T21:53:47.744Z,21.51
2018-04-19T21:58:49.090Z,21.44
2018-04-19T22:03:50.395Z,21.36
2018-04-19T22:08:51.787Z,21.19
2018-04-19T22:13:53.095Z,20.97
2018-04-19T22:18:54.390Z,20.73
2018-04-19T22:23:58.648Z,20.47
2018-04-19T22:28:59.963Z,20.33
2018-04-19T22:34:02.032Z,20.04
2018-04-19T22:39:03.393Z,19.74
2018-04-19T22:44:04.686Z,19.56
2018-04-19T22:49:06.003Z,19.42
2018-04-19T22:54:07.310Z,19.72
2018-04-19T22:59:08.631Z,19.82
2018-04-19T23:04:09.935Z,19.85
2018-04-19T23:09:11.250Z,19.75
2018-04-19T23:14:12.759Z,19.60
2018-04-19T23:19:14.065Z,19.40
2018-04-19T23:24:16.122Z,18.91
2018-04-19T23:29:17.436Z,18.78
2018-04-19T23:34:18.817Z,18.85
2018-04-19T23:39:20.095Z,18.84
2018-04-19T23:44:21.419Z,18.58
2018-04-19T23:49:22.737Z,18.67
2018-04-19T23:54:24.047Z,18.36
2018-04-19T23:59:25.379Z,18.34
